sensor_id;sensor_type;location;lat;lon;timestamp;temperature;humidity
18876;DHT22;9570;50.854;13.778;2023-02-17T00:01:27;8.80;99.90
18876;DHT22;9570;50.854;13.778;2023-02-17T00:03:53;8.80;99.90
18876;DHT22;9570;50.854;13.778;2023-02-17T00:06:22;8.80;99.90
18876;DHT22;9570;50.854;13.778;2023-02-17T00:08:48;8.70;99.90
18876;DHT22;9570;50.854;13.778;2023-02-17T00:11:15;8.80;99.90
18876;DHT22;9570;50.854;13.778;2023-02-17T00:13:41;8.80;99.90
18876;DHT22;9570;50.854;13.778;2023-02-17T00:16:08;8.80;99.90
18876;DHT22;9570;50.854;13.778;2023-02-17T00:18:34;8.80;99.90
18876;DHT22;9570;50.854;13.778;2023-02-17T00:21:00;8.80;99.90
18876;DHT22;9570;50.854;13.778;2023-02-17T00:23:25;8.80;99.90
18876;DHT22;9570;50.854;13.778;2023-02-17T00:25:51;8.80;99.90
18876;DHT22;9570;50.854;13.778;2023-02-17T00:28:16;8.70;99.90
18876;DHT22;9570;50.854;13.778;2023-02-17T00:30:41;8.70;99.90
18876;DHT22;9570;50.854;13.778;2023-02-17T00:33:07;8.60;99.90
18876;DHT22;9570;50.854;13.778;2023-02-17T00:35:32;8.70;99.90
18876;DHT22;9570;50.854;13.778;2023-02-17T00:37:58;8.70;99.90
18876;DHT22;9570;50.854;13.778;2023-02-17T00:40:23;8.70;99.90
18876;DHT22;9570;50.854;13.778;2023-02-17T00:42:49;8.70;99.90
18876;DHT22;9570;50.854;13.778;2023-02-17T00:45:14;8.80;99.90
18876;DHT22;9570;50.854;13.778;2023-02-17T00:47:40;8.80;99.90
18876;DHT22;9570;50.854;13.778;2023-02-17T00:50:06;8.70;99.90
18876;DHT22;9570;50.854;13.778;2023-02-17T00:52:31;8.80;99.90
18876;DHT22;9570;50.854;13.778;2023-02-17T00:54:57;8.80;99.90
18876;DHT22;9570;50.854;13.778;2023-02-17T00:57:22;8.90;99.90
18876;DHT22;9570;50.854;13.778;2023-02-17T00:59:49;8.80;99.90
18876;DHT22;9570;50.854;13.778;2023-02-17T01:02:14;8.80;99.90
18876;DHT22;9570;50.854;13.778;2023-02-17T01:04:40;8.70;99.90
18876;DHT22;9570;50.854;13.778;2023-02-17T01:07:05;8.80;99.90
18876;DHT22;9570;50.854;13.778;2023-02-17T01:09:30;8.80;99.90
18876;DHT22;9570;50.854;13.778;2023-02-17T01:11:56;8.80;99.90
18876;DHT22;9570;50.854;13.778;2023-02-17T01:14:21;8.70;99.90
18876;DHT22;9570;50.854;13.778;2023-02-17T01:16:47;8.70;99.90
18876;DHT22;9570;50.854;13.778;2023-02-17T01:19:16;8.80;99.90
18876;DHT22;9570;50.854;13.778;2023-02-17T01:21:42;8.70;99.90
18876;DHT22;9570;50.854;13.778;2023-02-17T01:24:08;8.60;99.90
18876;DHT22;9570;50.854;13.778;2023-02-17T01:26:35;8.70;99.90
18876;DHT22;9570;50.854;13.778;2023-02-17T01:29:02;8.70;99.90
18876;DHT22;9570;50.854;13.778;2023-02-17T01:31:28;8.70;99.90
18876;DHT22;9570;50.854;13.778;2023-02-17T01:34:00;8.60;99.90
18876;DHT22;9570;50.854;13.778;2023-02-17T01:36:26;8.60;99.90
18876;DHT22;9570;50.854;13.778;2023-02-17T01:38:51;8.70;99.90
18876;DHT22;9570;50.854;13.778;2023-02-17T01:41:18;8.60;99.90
18876;DHT22;9570;50.854;13.778;2023-02-17T01:44:08;8.70;99.90
18876;DHT22;9570;50.854;13.778;2023-02-17T01:46:34;8.70;99.90
18876;DHT22;9570;50.854;13.778;2023-02-17T01:49:02;8.70;99.90
18876;DHT22;9570;50.854;13.778;2023-02-17T01:51:33;8.60;99.90
18876;DHT22;9570;50.854;13.778;2023-02-17T01:54:01;8.60;99.90
18876;DHT22;9570;50.854;13.778;2023-02-17T01:56:29;8.60;99.90
18876;DHT22;9570;50.854;13.778;2023-02-17T01:59:02;8.60;99.90
18876;DHT22;9570;50.854;13.778;2023-02-17T02:01:29;8.50;99.90
18876;DHT22;9570;50.854;13.778;2023-02-17T02:03:56;8.40;99.90
18876;DHT22;9570;50.854;13.778;2023-02-17T02:06:25;8.50;99.90
18876;DHT22;9570;50.854;13.778;2023-02-17T02:09:04;8.60;99.90
18876;DHT22;9570;50.854;13.778;2023-02-17T02:11:30;8.60;99.90
18876;DHT22;9570;50.854;13.778;2023-02-17T02:13:57;8.60;99.90
18876;DHT22;9570;50.854;13.778;2023-02-17T02:16:43;8.60;99.90
18876;DHT22;9570;50.854;13.778;2023-02-17T02:19:33;8.60;99.90
18876;DHT22;9570;50.854;13.778;2023-02-17T02:22:22;8.60;99.90
18876;DHT22;9570;50.854;13.778;2023-02-17T02:27:44;8.70;99.90
18876;DHT22;9570;50.854;13.778;2023-02-17T02:33:22;8.70;99.90
18876;DHT22;9570;50.854;13.778;2023-02-17T02:36:08;8.70;99.90
18876;DHT22;9570;50.854;13.778;2023-02-17T02:39:01;8.70;99.90
18876;DHT22;9570;50.854;13.778;2023-02-17T02:41:49;8.80;99.90
18876;DHT22;9570;50.854;13.778;2023-02-17T02:44:19;8.80;99.90
18876;DHT22;9570;50.854;13.778;2023-02-17T02:46:44;8.80;99.90
18876;DHT22;9570;50.854;13.778;2023-02-17T02:49:10;8.90;99.90
18876;DHT22;9570;50.854;13.778;2023-02-17T02:54:15;8.80;99.90
18876;DHT22;9570;50.854;13.778;2023-02-17T03:05:15;8.70;99.90
18876;DHT22;9570;50.854;13.778;2023-02-17T03:07:53;8.80;99.90
18876;DHT22;9570;50.854;13.778;2023-02-17T03:10:20;8.80;99.90
18876;DHT22;9570;50.854;13.778;2023-02-17T03:12:46;8.80;99.90
18876;DHT22;9570;50.854;13.778;2023-02-17T03:15:17;8.80;99.90
18876;DHT22;9570;50.854;13.778;2023-02-17T03:17:43;8.80;99.90
18876;DHT22;9570;50.854;13.778;2023-02-17T03:20:10;8.80;99.90
18876;DHT22;9570;50.854;13.778;2023-02-17T03:22:39;8.80;99.90
18876;DHT22;9570;50.854;13.778;2023-02-17T03:25:06;8.80;99.90
18876;DHT22;9570;50.854;13.778;2023-02-17T03:27:32;8.80;99.90
18876;DHT22;9570;50.854;13.778;2023-02-17T03:29:57;8.70;99.90
18876;DHT22;9570;50.854;13.778;2023-02-17T03:32:23;8.70;99.90
18876;DHT22;9570;50.854;13.778;2023-02-17T03:34:49;8.70;99.90
18876;DHT22;9570;50.854;13.778;2023-02-17T03:37:14;8.70;99.90
18876;DHT22;9570;50.854;13.778;2023-02-17T03:39:41;8.80;99.90
18876;DHT22;9570;50.854;13.778;2023-02-17T03:42:06;8.80;99.90
18876;DHT22;9570;50.854;13.778;2023-02-17T03:44:32;8.80;99.90
18876;DHT22;9570;50.854;13.778;2023-02-17T03:46:57;8.80;99.90
18876;DHT22;9570;50.854;13.778;2023-02-17T03:49:23;8.80;99.90
18876;DHT22;9570;50.854;13.778;2023-02-17T03:51:49;8.70;99.90
18876;DHT22;9570;50.854;13.778;2023-02-17T03:54:14;8.60;99.90
18876;DHT22;9570;50.854;13.778;2023-02-17T03:56:40;8.50;99.90
18876;DHT22;9570;50.854;13.778;2023-02-17T03:59:05;8.50;99.90
18876;DHT22;9570;50.854;13.778;2023-02-17T04:01:31;8.50;99.90
18876;DHT22;9570;50.854;13.778;2023-02-17T04:03:56;8.40;99.90
18876;DHT22;9570;50.854;13.778;2023-02-17T04:06:22;8.40;99.90
18876;DHT22;9570;50.854;13.778;2023-02-17T04:08:47;8.30;99.90
18876;DHT22;9570;50.854;13.778;2023-02-17T04:11:13;8.30;99.90
18876;DHT22;9570;50.854;13.778;2023-02-17T04:13:39;8.20;99.90
18876;DHT22;9570;50.854;13.778;2023-02-17T04:16:06;8.20;99.90
18876;DHT22;9570;50.854;13.778;2023-02-17T04:18:32;8.20;99.90
18876;DHT22;9570;50.854;13.778;2023-02-17T04:20:58;8.10;99.90
18876;DHT22;9570;50.854;13.778;2023-02-17T04:23:23;8.10;99.90
18876;DHT22;9570;50.854;13.778;2023-02-17T04:25:49;8.10;99.90
18876;DHT22;9570;50.854;13.778;2023-02-17T04:28:16;8.10;99.90
18876;DHT22;9570;50.854;13.778;2023-02-17T04:30:43;8.00;99.90
18876;DHT22;9570;50.854;13.778;2023-02-17T04:33:09;8.00;99.90
18876;DHT22;9570;50.854;13.778;2023-02-17T04:35:35;8.00;99.90
18876;DHT22;9570;50.854;13.778;2023-02-17T04:38:00;8.00;99.90
18876;DHT22;9570;50.854;13.778;2023-02-17T04:40:26;7.90;99.90
18876;DHT22;9570;50.854;13.778;2023-02-17T04:42:51;7.90;99.90
18876;DHT22;9570;50.854;13.778;2023-02-17T04:45:17;7.80;99.90
18876;DHT22;9570;50.854;13.778;2023-02-17T04:47:42;7.70;99.90
18876;DHT22;9570;50.854;13.778;2023-02-17T04:50:10;7.70;99.90
18876;DHT22;9570;50.854;13.778;2023-02-17T04:52:36;7.80;99.90
18876;DHT22;9570;50.854;13.778;2023-02-17T04:55:03;7.80;99.90
18876;DHT22;9570;50.854;13.778;2023-02-17T04:57:28;7.80;99.90
18876;DHT22;9570;50.854;13.778;2023-02-17T04:59:54;7.80;99.90
18876;DHT22;9570;50.854;13.778;2023-02-17T05:02:19;7.80;99.90
18876;DHT22;9570;50.854;13.778;2023-02-17T05:04:45;7.80;99.90
18876;DHT22;9570;50.854;13.778;2023-02-17T05:07:10;7.80;99.90
18876;DHT22;9570;50.854;13.778;2023-02-17T05:09:36;7.70;99.90
18876;DHT22;9570;50.854;13.778;2023-02-17T05:12:01;7.70;99.90
18876;DHT22;9570;50.854;13.778;2023-02-17T05:14:28;7.80;99.90
18876;DHT22;9570;50.854;13.778;2023-02-17T05:16:53;7.70;99.90
18876;DHT22;9570;50.854;13.778;2023-02-17T05:19:19;7.70;99.90
18876;DHT22;9570;50.854;13.778;2023-02-17T05:21:44;7.80;99.90
18876;DHT22;9570;50.854;13.778;2023-02-17T05:24:10;7.70;99.90
18876;DHT22;9570;50.854;13.778;2023-02-17T05:26:35;7.80;99.90
18876;DHT22;9570;50.854;13.778;2023-02-17T05:29:01;7.80;99.90
18876;DHT22;9570;50.854;13.778;2023-02-17T05:31:26;7.80;99.90
18876;DHT22;9570;50.854;13.778;2023-02-17T05:33:55;7.90;99.90
18876;DHT22;9570;50.854;13.778;2023-02-17T05:36:20;7.90;99.90
18876;DHT22;9570;50.854;13.778;2023-02-17T05:38:46;7.90;99.90
18876;DHT22;9570;50.854;13.778;2023-02-17T05:41:15;7.90;99.90
18876;DHT22;9570;50.854;13.778;2023-02-17T05:43:41;8.00;99.90
18876;DHT22;9570;50.854;13.778;2023-02-17T05:46:06;8.00;99.90
18876;DHT22;9570;50.854;13.778;2023-02-17T05:48:32;8.00;99.90
18876;DHT22;9570;50.854;13.778;2023-02-17T05:50:57;8.00;99.90
18876;DHT22;9570;50.854;13.778;2023-02-17T05:53:23;8.00;99.90
18876;DHT22;9570;50.854;13.778;2023-02-17T05:55:48;8.00;99.90
18876;DHT22;9570;50.854;13.778;2023-02-17T05:58:14;8.00;99.90
18876;DHT22;9570;50.854;13.778;2023-02-17T06:00:39;8.10;99.90
18876;DHT22;9570;50.854;13.778;2023-02-17T06:03:05;8.10;99.90
18876;DHT22;9570;50.854;13.778;2023-02-17T06:05:30;8.10;99.90
18876;DHT22;9570;50.854;13.778;2023-02-17T06:07:56;8.00;99.90
18876;DHT22;9570;50.854;13.778;2023-02-17T06:10:22;8.00;99.90
18876;DHT22;9570;50.854;13.778;2023-02-17T06:12:47;8.00;99.90
18876;DHT22;9570;50.854;13.778;2023-02-17T06:15:13;8.10;99.90
18876;DHT22;9570;50.854;13.778;2023-02-17T06:17:38;8.10;99.90
18876;DHT22;9570;50.854;13.778;2023-02-17T06:20:04;8.10;99.90
18876;DHT22;9570;50.854;13.778;2023-02-17T06:22:30;8.10;99.90
18876;DHT22;9570;50.854;13.778;2023-02-17T06:24:56;8.20;99.90
18876;DHT22;9570;50.854;13.778;2023-02-17T06:27:21;8.20;99.90
18876;DHT22;9570;50.854;13.778;2023-02-17T06:29:46;8.10;99.90
18876;DHT22;9570;50.854;13.778;2023-02-17T06:32:12;8.10;99.90
18876;DHT22;9570;50.854;13.778;2023-02-17T06:34:38;8.20;99.90
18876;DHT22;9570;50.854;13.778;2023-02-17T06:37:03;8.30;99.90
18876;DHT22;9570;50.854;13.778;2023-02-17T06:39:29;8.30;99.90
18876;DHT22;9570;50.854;13.778;2023-02-17T06:41:54;8.30;99.90
18876;DHT22;9570;50.854;13.778;2023-02-17T06:44:19;8.30;99.90
18876;DHT22;9570;50.854;13.778;2023-02-17T06:46:45;8.40;99.90
18876;DHT22;9570;50.854;13.778;2023-02-17T06:49:11;8.40;99.90
18876;DHT22;9570;50.854;13.778;2023-02-17T06:51:37;8.40;99.90
18876;DHT22;9570;50.854;13.778;2023-02-17T06:54:02;8.40;99.90
18876;DHT22;9570;50.854;13.778;2023-02-17T06:56:28;8.40;99.90
18876;DHT22;9570;50.854;13.778;2023-02-17T06:58:53;8.50;99.90
18876;DHT22;9570;50.854;13.778;2023-02-17T07:01:24;8.50;99.90
18876;DHT22;9570;50.854;13.778;2023-02-17T07:03:54;8.50;99.90
18876;DHT22;9570;50.854;13.778;2023-02-17T07:06:20;8.50;99.90
18876;DHT22;9570;50.854;13.778;2023-02-17T07:08:47;8.50;99.90
18876;DHT22;9570;50.854;13.778;2023-02-17T07:11:13;8.60;99.90
18876;DHT22;9570;50.854;13.778;2023-02-17T07:13:39;8.50;99.90
18876;DHT22;9570;50.854;13.778;2023-02-17T07:16:06;8.50;99.90
18876;DHT22;9570;50.854;13.778;2023-02-17T07:18:32;8.50;99.90
18876;DHT22;9570;50.854;13.778;2023-02-17T07:20:58;8.50;99.90
18876;DHT22;9570;50.854;13.778;2023-02-17T07:23:24;8.50;99.90
18876;DHT22;9570;50.854;13.778;2023-02-17T07:25:49;8.50;99.90
18876;DHT22;9570;50.854;13.778;2023-02-17T07:28:15;8.50;99.90
18876;DHT22;9570;50.854;13.778;2023-02-17T07:30:41;8.50;99.90
18876;DHT22;9570;50.854;13.778;2023-02-17T07:33:07;8.60;99.90
18876;DHT22;9570;50.854;13.778;2023-02-17T07:35:34;8.60;99.90
18876;DHT22;9570;50.854;13.778;2023-02-17T07:38:00;8.50;99.90
18876;DHT22;9570;50.854;13.778;2023-02-17T07:40:26;8.50;99.90
18876;DHT22;9570;50.854;13.778;2023-02-17T07:42:52;8.50;99.90
18876;DHT22;9570;50.854;13.778;2023-02-17T07:45:18;8.40;99.90
18876;DHT22;9570;50.854;13.778;2023-02-17T07:47:43;8.50;99.90
18876;DHT22;9570;50.854;13.778;2023-02-17T07:50:10;8.50;99.90
18876;DHT22;9570;50.854;13.778;2023-02-17T07:52:35;8.60;99.90
18876;DHT22;9570;50.854;13.778;2023-02-17T07:55:01;8.50;99.90
18876;DHT22;9570;50.854;13.778;2023-02-17T07:57:26;8.50;99.90
18876;DHT22;9570;50.854;13.778;2023-02-17T07:59:52;8.50;99.90
18876;DHT22;9570;50.854;13.778;2023-02-17T08:02:18;8.50;99.90
18876;DHT22;9570;50.854;13.778;2023-02-17T08:04:43;8.50;99.90
18876;DHT22;9570;50.854;13.778;2023-02-17T08:07:09;8.50;99.90
18876;DHT22;9570;50.854;13.778;2023-02-17T08:09:34;8.50;99.90
18876;DHT22;9570;50.854;13.778;2023-02-17T08:12:19;8.50;99.90
18876;DHT22;9570;50.854;13.778;2023-02-17T08:15:05;8.60;99.90
18876;DHT22;9570;50.854;13.778;2023-02-17T08:17:32;8.60;99.90
18876;DHT22;9570;50.854;13.778;2023-02-17T08:19:58;8.60;99.90
18876;DHT22;9570;50.854;13.778;2023-02-17T08:22:23;8.80;99.90
18876;DHT22;9570;50.854;13.778;2023-02-17T08:24:49;8.80;99.90
18876;DHT22;9570;50.854;13.778;2023-02-17T08:27:15;8.80;99.90
18876;DHT22;9570;50.854;13.778;2023-02-17T08:29:41;8.90;99.90
18876;DHT22;9570;50.854;13.778;2023-02-17T08:32:07;8.90;99.90
18876;DHT22;9570;50.854;13.778;2023-02-17T08:34:32;8.90;99.90
18876;DHT22;9570;50.854;13.778;2023-02-17T08:36:59;8.90;99.90
18876;DHT22;9570;50.854;13.778;2023-02-17T08:39:25;9.00;99.90
18876;DHT22;9570;50.854;13.778;2023-02-17T08:41:52;8.90;99.90
18876;DHT22;9570;50.854;13.778;2023-02-17T08:44:18;8.90;99.90
18876;DHT22;9570;50.854;13.778;2023-02-17T08:46:45;8.90;99.90
18876;DHT22;9570;50.854;13.778;2023-02-17T08:49:13;8.90;99.90
18876;DHT22;9570;50.854;13.778;2023-02-17T08:51:38;8.80;99.90
18876;DHT22;9570;50.854;13.778;2023-02-17T08:54:05;8.90;99.90
18876;DHT22;9570;50.854;13.778;2023-02-17T08:56:32;8.90;99.90
18876;DHT22;9570;50.854;13.778;2023-02-17T08:58:58;8.90;99.90
18876;DHT22;9570;50.854;13.778;2023-02-17T09:01:25;8.90;99.90
18876;DHT22;9570;50.854;13.778;2023-02-17T09:03:52;8.90;99.90
18876;DHT22;9570;50.854;13.778;2023-02-17T09:06:19;8.90;99.90
18876;DHT22;9570;50.854;13.778;2023-02-17T09:08:44;8.90;99.90
18876;DHT22;9570;50.854;13.778;2023-02-17T09:11:10;9.00;99.90
18876;DHT22;9570;50.854;13.778;2023-02-17T09:13:37;9.00;99.90
18876;DHT22;9570;50.854;13.778;2023-02-17T09:16:02;9.00;99.90
18876;DHT22;9570;50.854;13.778;2023-02-17T09:18:28;9.10;99.90
18876;DHT22;9570;50.854;13.778;2023-02-17T09:20:54;9.10;99.90
18876;DHT22;9570;50.854;13.778;2023-02-17T09:23:19;9.00;99.90
18876;DHT22;9570;50.854;13.778;2023-02-17T09:25:45;9.00;99.90
18876;DHT22;9570;50.854;13.778;2023-02-17T09:28:11;9.10;99.90
18876;DHT22;9570;50.854;13.778;2023-02-17T09:30:38;9.00;99.90
18876;DHT22;9570;50.854;13.778;2023-02-17T09:33:04;9.10;99.90
18876;DHT22;9570;50.854;13.778;2023-02-17T09:35:30;9.20;99.90
18876;DHT22;9570;50.854;13.778;2023-02-17T09:37:57;9.20;99.90
18876;DHT22;9570;50.854;13.778;2023-02-17T09:40:46;9.30;99.90
18876;DHT22;9570;50.854;13.778;2023-02-17T09:43:15;9.30;99.90
18876;DHT22;9570;50.854;13.778;2023-02-17T09:45:44;9.30;99.90
18876;DHT22;9570;50.854;13.778;2023-02-17T09:48:14;9.40;99.90
18876;DHT22;9570;50.854;13.778;2023-02-17T09:53:38;9.60;99.90
18876;DHT22;9570;50.854;13.778;2023-02-17T09:56:10;9.60;99.90
18876;DHT22;9570;50.854;13.778;2023-02-17T09:58:40;9.70;99.90
18876;DHT22;9570;50.854;13.778;2023-02-17T10:01:10;9.60;99.90
18876;DHT22;9570;50.854;13.778;2023-02-17T10:03:53;9.60;99.90
18876;DHT22;9570;50.854;13.778;2023-02-17T10:06:30;9.70;99.90
18876;DHT22;9570;50.854;13.778;2023-02-17T10:09:23;9.70;99.90
18876;DHT22;9570;50.854;13.778;2023-02-17T10:17:43;9.80;99.90
18876;DHT22;9570;50.854;13.778;2023-02-17T10:20:19;9.80;99.90
18876;DHT22;9570;50.854;13.778;2023-02-17T10:23:00;9.80;99.90
18876;DHT22;9570;50.854;13.778;2023-02-17T10:25:52;9.70;99.90
18876;DHT22;9570;50.854;13.778;2023-02-17T10:31:17;9.70;99.90
18876;DHT22;9570;50.854;13.778;2023-02-17T10:34:00;9.70;99.90
18876;DHT22;9570;50.854;13.778;2023-02-17T10:36:41;9.70;99.90
18876;DHT22;9570;50.854;13.778;2023-02-17T10:39:48;9.80;99.90
18876;DHT22;9570;50.854;13.778;2023-02-17T10:42:24;9.80;99.90
18876;DHT22;9570;50.854;13.778;2023-02-17T10:44:53;9.80;99.90
18876;DHT22;9570;50.854;13.778;2023-02-17T10:47:20;9.90;99.90
18876;DHT22;9570;50.854;13.778;2023-02-17T10:49:49;10.00;99.90
18876;DHT22;9570;50.854;13.778;2023-02-17T10:52:18;10.00;99.90
18876;DHT22;9570;50.854;13.778;2023-02-17T10:55:03;10.10;99.90
18876;DHT22;9570;50.854;13.778;2023-02-17T10:57:34;10.10;99.90
18876;DHT22;9570;50.854;13.778;2023-02-17T11:00:00;10.20;99.90
18876;DHT22;9570;50.854;13.778;2023-02-17T11:02:40;10.20;99.90
18876;DHT22;9570;50.854;13.778;2023-02-17T11:05:06;10.30;99.90
18876;DHT22;9570;50.854;13.778;2023-02-17T11:07:35;10.30;99.90
18876;DHT22;9570;50.854;13.778;2023-02-17T11:10:15;10.30;99.90
18876;DHT22;9570;50.854;13.778;2023-02-17T11:12:43;10.40;99.90
18876;DHT22;9570;50.854;13.778;2023-02-17T11:15:16;10.50;99.90
18876;DHT22;9570;50.854;13.778;2023-02-17T11:17:43;10.60;99.90
18876;DHT22;9570;50.854;13.778;2023-02-17T11:22:40;10.60;99.90
18876;DHT22;9570;50.854;13.778;2023-02-17T11:25:23;10.60;99.90
18876;DHT22;9570;50.854;13.778;2023-02-17T11:27:54;10.70;99.90
18876;DHT22;9570;50.854;13.778;2023-02-17T11:30:20;10.80;99.90
18876;DHT22;9570;50.854;13.778;2023-02-17T11:32:46;10.70;99.90
18876;DHT22;9570;50.854;13.778;2023-02-17T11:38:18;10.60;99.90
18876;DHT22;9570;50.854;13.778;2023-02-17T11:43:20;10.60;99.90
18876;DHT22;9570;50.854;13.778;2023-02-17T11:46:28;10.60;99.90
18876;DHT22;9570;50.854;13.778;2023-02-17T11:52:08;10.70;99.90
18876;DHT22;9570;50.854;13.778;2023-02-17T11:55:07;10.70;99.90
18876;DHT22;9570;50.854;13.778;2023-02-17T11:57:43;10.70;99.90
18876;DHT22;9570;50.854;13.778;2023-02-17T12:03:02;10.70;99.90
18876;DHT22;9570;50.854;13.778;2023-02-17T12:08:41;10.70;99.90
18876;DHT22;9570;50.854;13.778;2023-02-17T12:11:44;10.70;99.90
18876;DHT22;9570;50.854;13.778;2023-02-17T12:17:02;10.80;99.90
18876;DHT22;9570;50.854;13.778;2023-02-17T12:19:55;10.80;99.90
18876;DHT22;9570;50.854;13.778;2023-02-17T12:22:31;10.80;99.90
18876;DHT22;9570;50.854;13.778;2023-02-17T12:25:18;10.90;99.90
18876;DHT22;9570;50.854;13.778;2023-02-17T12:27:54;10.90;99.90
18876;DHT22;9570;50.854;13.778;2023-02-17T12:33:38;10.90;99.90
18876;DHT22;9570;50.854;13.778;2023-02-17T12:36:14;10.90;99.90
18876;DHT22;9570;50.854;13.778;2023-02-17T12:38:56;11.00;99.90
18876;DHT22;9570;50.854;13.778;2023-02-17T12:41:33;10.90;99.90
18876;DHT22;9570;50.854;13.778;2023-02-17T12:44:06;10.90;99.90
18876;DHT22;9570;50.854;13.778;2023-02-17T12:46:39;10.90;99.90
18876;DHT22;9570;50.854;13.778;2023-02-17T12:51:58;11.00;99.90
18876;DHT22;9570;50.854;13.778;2023-02-17T12:58:06;11.10;99.90
18876;DHT22;9570;50.854;13.778;2023-02-17T13:00:26;11.20;99.90
18876;DHT22;9570;50.854;13.778;2023-02-17T13:02:57;11.20;99.90
18876;DHT22;9570;50.854;13.778;2023-02-17T13:05:37;11.30;99.90
18876;DHT22;9570;50.854;13.778;2023-02-17T13:08:05;11.40;99.90
18876;DHT22;9570;50.854;13.778;2023-02-17T13:10:37;11.50;99.90
18876;DHT22;9570;50.854;13.778;2023-02-17T13:13:10;11.50;99.90
18876;DHT22;9570;50.854;13.778;2023-02-17T13:15:43;11.50;99.90
18876;DHT22;9570;50.854;13.778;2023-02-17T13:24:49;11.50;99.90
18876;DHT22;9570;50.854;13.778;2023-02-17T13:26:51;11.60;99.90
18876;DHT22;9570;50.854;13.778;2023-02-17T13:31:51;11.70;99.90
18876;DHT22;9570;50.854;13.778;2023-02-17T13:34:28;11.70;99.90
18876;DHT22;9570;50.854;13.778;2023-02-17T13:36:54;11.70;99.90
18876;DHT22;9570;50.854;13.778;2023-02-17T13:41:52;11.80;99.90
18876;DHT22;9570;50.854;13.778;2023-02-17T13:44:37;11.80;99.90
18876;DHT22;9570;50.854;13.778;2023-02-17T13:47:13;11.80;99.90
18876;DHT22;9570;50.854;13.778;2023-02-17T13:49:40;11.90;99.90
18876;DHT22;9570;50.854;13.778;2023-02-17T13:52:16;11.90;99.90
18876;DHT22;9570;50.854;13.778;2023-02-17T13:54:56;11.90;99.90
18876;DHT22;9570;50.854;13.778;2023-02-17T13:57:27;11.90;99.90
18876;DHT22;9570;50.854;13.778;2023-02-17T14:00:05;11.90;99.90
18876;DHT22;9570;50.854;13.778;2023-02-17T14:02:31;12.00;99.90
18876;DHT22;9570;50.854;13.778;2023-02-17T14:04:57;12.00;99.90
18876;DHT22;9570;50.854;13.778;2023-02-17T14:07:23;12.00;99.90
18876;DHT22;9570;50.854;13.778;2023-02-17T14:09:53;12.00;99.90
18876;DHT22;9570;50.854;13.778;2023-02-17T14:12:22;12.10;99.90
18876;DHT22;9570;50.854;13.778;2023-02-17T14:14:48;12.10;99.90
18876;DHT22;9570;50.854;13.778;2023-02-17T14:17:29;12.10;99.90
18876;DHT22;9570;50.854;13.778;2023-02-17T14:19:56;12.20;99.90
18876;DHT22;9570;50.854;13.778;2023-02-17T14:22:28;12.20;99.90
18876;DHT22;9570;50.854;13.778;2023-02-17T14:27:27;12.30;99.90
18876;DHT22;9570;50.854;13.778;2023-02-17T14:29:52;12.30;99.90
18876;DHT22;9570;50.854;13.778;2023-02-17T14:32:35;12.30;99.90
18876;DHT22;9570;50.854;13.778;2023-02-17T14:37:39;12.40;99.90
18876;DHT22;9570;50.854;13.778;2023-02-17T14:40:13;12.40;99.90
18876;DHT22;9570;50.854;13.778;2023-02-17T14:42:39;12.40;99.90
18876;DHT22;9570;50.854;13.778;2023-02-17T14:45:05;12.50;99.90
18876;DHT22;9570;50.854;13.778;2023-02-17T14:47:30;12.50;99.90
18876;DHT22;9570;50.854;13.778;2023-02-17T14:49:56;12.50;99.90
18876;DHT22;9570;50.854;13.778;2023-02-17T14:52:23;12.60;99.90
18876;DHT22;9570;50.854;13.778;2023-02-17T14:54:50;12.50;99.90
18876;DHT22;9570;50.854;13.778;2023-02-17T14:57:16;12.50;99.90
18876;DHT22;9570;50.854;13.778;2023-02-17T14:59:43;12.50;99.90
18876;DHT22;9570;50.854;13.778;2023-02-17T15:02:17;12.50;99.90
18876;DHT22;9570;50.854;13.778;2023-02-17T15:04:43;12.50;99.90
18876;DHT22;9570;50.854;13.778;2023-02-17T15:07:11;12.50;99.90
18876;DHT22;9570;50.854;13.778;2023-02-17T15:09:38;12.50;99.90
18876;DHT22;9570;50.854;13.778;2023-02-17T15:12:16;12.50;99.90
18876;DHT22;9570;50.854;13.778;2023-02-17T15:14:42;12.50;99.90
18876;DHT22;9570;50.854;13.778;2023-02-17T15:17:07;12.50;99.90
18876;DHT22;9570;50.854;13.778;2023-02-17T15:19:33;12.50;99.90
18876;DHT22;9570;50.854;13.778;2023-02-17T15:21:58;12.50;99.90
18876;DHT22;9570;50.854;13.778;2023-02-17T15:24:26;12.50;99.90
18876;DHT22;9570;50.854;13.778;2023-02-17T15:26:53;12.50;99.90
18876;DHT22;9570;50.854;13.778;2023-02-17T15:29:22;12.50;99.90
18876;DHT22;9570;50.854;13.778;2023-02-17T15:31:50;12.40;99.90
18876;DHT22;9570;50.854;13.778;2023-02-17T15:34:18;12.50;99.90
18876;DHT22;9570;50.854;13.778;2023-02-17T15:36:44;12.50;99.90
18876;DHT22;9570;50.854;13.778;2023-02-17T15:39:16;12.40;99.90
18876;DHT22;9570;50.854;13.778;2023-02-17T15:41:43;12.40;99.90
18876;DHT22;9570;50.854;13.778;2023-02-17T15:44:14;12.40;99.90
18876;DHT22;9570;50.854;13.778;2023-02-17T15:46:41;12.40;99.90
18876;DHT22;9570;50.854;13.778;2023-02-17T15:49:10;12.30;99.90
18876;DHT22;9570;50.854;13.778;2023-02-17T15:51:35;12.30;99.90
18876;DHT22;9570;50.854;13.778;2023-02-17T15:54:01;12.40;99.90
18876;DHT22;9570;50.854;13.778;2023-02-17T15:56:30;12.30;99.90
18876;DHT22;9570;50.854;13.778;2023-02-17T15:58:58;12.30;99.90
18876;DHT22;9570;50.854;13.778;2023-02-17T16:01:30;12.30;99.90
18876;DHT22;9570;50.854;13.778;2023-02-17T16:03:56;12.20;99.90
18876;DHT22;9570;50.854;13.778;2023-02-17T16:06:23;12.20;99.90
18876;DHT22;9570;50.854;13.778;2023-02-17T16:08:49;12.20;99.90
18876;DHT22;9570;50.854;13.778;2023-02-17T16:11:15;12.10;99.90
18876;DHT22;9570;50.854;13.778;2023-02-17T16:13:43;12.10;99.90
18876;DHT22;9570;50.854;13.778;2023-02-17T16:16:16;12.00;99.90
18876;DHT22;9570;50.854;13.778;2023-02-17T16:18:42;12.00;99.90
18876;DHT22;9570;50.854;13.778;2023-02-17T16:21:09;12.00;99.90
18876;DHT22;9570;50.854;13.778;2023-02-17T16:23:35;11.90;99.90
18876;DHT22;9570;50.854;13.778;2023-02-17T16:26:01;11.90;99.90
18876;DHT22;9570;50.854;13.778;2023-02-17T16:28:27;11.80;99.90
18876;DHT22;9570;50.854;13.778;2023-02-17T16:30:53;11.80;99.90
18876;DHT22;9570;50.854;13.778;2023-02-17T16:33:19;11.80;99.90
18876;DHT22;9570;50.854;13.778;2023-02-17T16:35:45;11.80;99.90
18876;DHT22;9570;50.854;13.778;2023-02-17T16:38:17;11.70;99.90
18876;DHT22;9570;50.854;13.778;2023-02-17T16:40:46;11.70;99.90
18876;DHT22;9570;50.854;13.778;2023-02-17T16:43:17;11.60;99.90
18876;DHT22;9570;50.854;13.778;2023-02-17T16:45:56;11.60;99.90
18876;DHT22;9570;50.854;13.778;2023-02-17T16:48:23;11.60;99.90
18876;DHT22;9570;50.854;13.778;2023-02-17T16:50:50;11.60;99.90
18876;DHT22;9570;50.854;13.778;2023-02-17T16:53:15;11.60;99.90
18876;DHT22;9570;50.854;13.778;2023-02-17T16:55:41;11.50;99.90
18876;DHT22;9570;50.854;13.778;2023-02-17T16:58:20;11.60;99.90
18876;DHT22;9570;50.854;13.778;2023-02-17T17:00:49;11.60;99.90
18876;DHT22;9570;50.854;13.778;2023-02-17T17:03:19;11.60;99.90
18876;DHT22;9570;50.854;13.778;2023-02-17T17:05:46;11.60;99.90